sensor_id;sensor_type;location;lat;lon;timestamp;P1;durP1;ratioP1;P2;durP2;ratioP2
1479;SDS011;732;51.698;4.886;2023-06-22T00:01:25;9.20;;;4.90;;
1479;SDS011;732;51.698;4.886;2023-06-22T00:03:54;5.27;;;4.40;;
1479;SDS011;732;51.698;4.886;2023-06-22T00:06:23;5.97;;;4.23;;
1479;SDS011;732;51.698;4.886;2023-06-22T00:08:51;8.57;;;5.30;;
1479;SDS011;732;51.698;4.886;2023-06-22T00:11:19;6.83;;;5.23;;
1479;SDS011;732;51.698;4.886;2023-06-22T00:13:48;7.17;;;5.00;;
1479;SDS011;732;51.698;4.886;2023-06-22T00:16:17;7.00;;;5.07;;
1479;SDS011;732;51.698;4.886;2023-06-22T00:18:45;7.37;;;4.47;;
1479;SDS011;732;51.698;4.886;2023-06-22T00:21:16;7.67;;;5.30;;
1479;SDS011;732;51.698;4.886;2023-06-22T00:23:46;6.83;;;4.77;;
1479;SDS011;732;51.698;4.886;2023-06-22T00:26:15;7.57;;;5.40;;
1479;SDS011;732;51.698;4.886;2023-06-22T00:28:44;8.13;;;5.20;;
1479;SDS011;732;51.698;4.886;2023-06-22T00:31:13;8.23;;;5.60;;
1479;SDS011;732;51.698;4.886;2023-06-22T00:33:41;9.40;;;6.90;;
1479;SDS011;732;51.698;4.886;2023-06-22T00:36:10;6.70;;;5.00;;
1479;SDS011;732;51.698;4.886;2023-06-22T00:38:43;8.53;;;6.40;;
1479;SDS011;732;51.698;4.886;2023-06-22T00:41:12;8.30;;;5.93;;
1479;SDS011;732;51.698;4.886;2023-06-22T00:43:40;11.27;;;6.67;;
1479;SDS011;732;51.698;4.886;2023-06-22T00:46:09;8.57;;;6.07;;
1479;SDS011;732;51.698;4.886;2023-06-22T00:48:38;10.87;;;7.40;;
1479;SDS011;732;51.698;4.886;2023-06-22T00:51:10;12.93;;;8.00;;
1479;SDS011;732;51.698;4.886;2023-06-22T00:53:39;10.10;;;7.70;;
1479;SDS011;732;51.698;4.886;2023-06-22T00:56:09;9.50;;;6.70;;
1479;SDS011;732;51.698;4.886;2023-06-22T00:58:39;9.83;;;6.90;;
1479;SDS011;732;51.698;4.886;2023-06-22T01:01:08;9.30;;;6.80;;
1479;SDS011;732;51.698;4.886;2023-06-22T01:03:37;9.73;;;7.87;;
1479;SDS011;732;51.698;4.886;2023-06-22T01:06:07;10.60;;;7.67;;
1479;SDS011;732;51.698;4.886;2023-06-22T01:08:43;11.10;;;7.53;;
1479;SDS011;732;51.698;4.886;2023-06-22T01:11:21;12.43;;;7.77;;
1479;SDS011;732;51.698;4.886;2023-06-22T01:13:57;10.50;;;7.50;;
1479;SDS011;732;51.698;4.886;2023-06-22T01:16:32;9.30;;;6.80;;
1479;SDS011;732;51.698;4.886;2023-06-22T01:19:05;10.50;;;7.40;;
1479;SDS011;732;51.698;4.886;2023-06-22T01:21:48;15.13;;;10.63;;
1479;SDS011;732;51.698;4.886;2023-06-22T01:24:21;10.53;;;8.30;;
1479;SDS011;732;51.698;4.886;2023-06-22T01:26:59;18.63;;;11.83;;
1479;SDS011;732;51.698;4.886;2023-06-22T01:29:44;17.53;;;11.23;;
1479;SDS011;732;51.698;4.886;2023-06-22T01:32:13;16.77;;;11.13;;
1479;SDS011;732;51.698;4.886;2023-06-22T01:34:43;16.00;;;12.30;;
1479;SDS011;732;51.698;4.886;2023-06-22T01:37:13;16.20;;;11.87;;
1479;SDS011;732;51.698;4.886;2023-06-22T01:39:42;18.20;;;11.93;;
1479;SDS011;732;51.698;4.886;2023-06-22T01:42:11;17.73;;;11.50;;
1479;SDS011;732;51.698;4.886;2023-06-22T01:44:40;15.00;;;12.10;;
1479;SDS011;732;51.698;4.886;2023-06-22T01:47:10;15.93;;;12.90;;
1479;SDS011;732;51.698;4.886;2023-06-22T01:49:42;18.33;;;12.13;;
1479;SDS011;732;51.698;4.886;2023-06-22T01:52:11;17.27;;;13.00;;
1479;SDS011;732;51.698;4.886;2023-06-22T01:54:39;19.60;;;13.00;;
1479;SDS011;732;51.698;4.886;2023-06-22T01:57:11;20.60;;;14.00;;
1479;SDS011;732;51.698;4.886;2023-06-22T01:59:42;16.97;;;12.90;;
1479;SDS011;732;51.698;4.886;2023-06-22T02:02:20;20.20;;;14.47;;
1479;SDS011;732;51.698;4.886;2023-06-22T02:04:57;17.77;;;13.97;;
1479;SDS011;732;51.698;4.886;2023-06-22T02:07:32;19.17;;;13.10;;
1479;SDS011;732;51.698;4.886;2023-06-22T02:10:08;18.17;;;14.10;;
1479;SDS011;732;51.698;4.886;2023-06-22T02:12:39;16.70;;;13.30;;
1479;SDS011;732;51.698;4.886;2023-06-22T02:15:11;18.30;;;13.77;;
1479;SDS011;732;51.698;4.886;2023-06-22T02:17:44;19.70;;;13.70;;
1479;SDS011;732;51.698;4.886;2023-06-22T02:20:12;18.47;;;14.07;;
1479;SDS011;732;51.698;4.886;2023-06-22T02:22:41;19.93;;;13.80;;
1479;SDS011;732;51.698;4.886;2023-06-22T02:25:10;19.10;;;14.87;;
1479;SDS011;732;51.698;4.886;2023-06-22T02:27:38;20.70;;;14.53;;
1479;SDS011;732;51.698;4.886;2023-06-22T02:30:08;21.77;;;14.57;;
1479;SDS011;732;51.698;4.886;2023-06-22T02:32:38;20.27;;;15.50;;
1479;SDS011;732;51.698;4.886;2023-06-22T02:35:10;20.27;;;16.23;;
1479;SDS011;732;51.698;4.886;2023-06-22T02:37:39;17.63;;;13.70;;
1479;SDS011;732;51.698;4.886;2023-06-22T02:40:08;19.20;;;14.00;;
1479;SDS011;732;51.698;4.886;2023-06-22T02:42:37;21.00;;;14.13;;
1479;SDS011;732;51.698;4.886;2023-06-22T02:45:07;17.27;;;14.10;;
1479;SDS011;732;51.698;4.886;2023-06-22T02:47:37;22.17;;;14.40;;
1479;SDS011;732;51.698;4.886;2023-06-22T02:50:06;18.00;;;13.83;;
1479;SDS011;732;51.698;4.886;2023-06-22T02:52:37;17.40;;;13.37;;
1479;SDS011;732;51.698;4.886;2023-06-22T02:55:06;22.87;;;15.40;;
1479;SDS011;732;51.698;4.886;2023-06-22T02:57:36;19.00;;;15.57;;
1479;SDS011;732;51.698;4.886;2023-06-22T03:00:11;25.90;;;18.00;;
1479;SDS011;732;51.698;4.886;2023-06-22T03:02:45;23.43;;;17.93;;
1479;SDS011;732;51.698;4.886;2023-06-22T03:05:16;23.40;;;17.83;;
1479;SDS011;732;51.698;4.886;2023-06-22T03:07:48;24.53;;;18.63;;
1479;SDS011;732;51.698;4.886;2023-06-22T03:10:17;22.30;;;16.87;;
1479;SDS011;732;51.698;4.886;2023-06-22T03:12:45;22.13;;;17.57;;
1479;SDS011;732;51.698;4.886;2023-06-22T03:15:13;23.83;;;18.80;;
1479;SDS011;732;51.698;4.886;2023-06-22T03:17:49;25.07;;;19.30;;
1479;SDS011;732;51.698;4.886;2023-06-22T03:20:18;27.93;;;18.93;;
1479;SDS011;732;51.698;4.886;2023-06-22T03:22:48;24.80;;;19.60;;
1479;SDS011;732;51.698;4.886;2023-06-22T03:25:16;24.70;;;19.43;;
1479;SDS011;732;51.698;4.886;2023-06-22T03:27:47;25.80;;;20.80;;
1479;SDS011;732;51.698;4.886;2023-06-22T03:30:16;26.87;;;19.50;;
1479;SDS011;732;51.698;4.886;2023-06-22T03:32:44;28.37;;;18.23;;
1479;SDS011;732;51.698;4.886;2023-06-22T03:35:14;25.13;;;17.93;;
1479;SDS011;732;51.698;4.886;2023-06-22T03:37:43;25.87;;;19.63;;
1479;SDS011;732;51.698;4.886;2023-06-22T03:40:13;23.53;;;17.67;;
1479;SDS011;732;51.698;4.886;2023-06-22T03:42:41;25.43;;;19.13;;
1479;SDS011;732;51.698;4.886;2023-06-22T03:45:10;25.47;;;18.73;;
1479;SDS011;732;51.698;4.886;2023-06-22T03:47:40;24.80;;;19.00;;
1479;SDS011;732;51.698;4.886;2023-06-22T03:50:08;26.57;;;19.23;;
1479;SDS011;732;51.698;4.886;2023-06-22T03:52:37;27.47;;;18.10;;
1479;SDS011;732;51.698;4.886;2023-06-22T03:55:06;24.00;;;17.20;;
1479;SDS011;732;51.698;4.886;2023-06-22T03:57:37;27.30;;;20.10;;
1479;SDS011;732;51.698;4.886;2023-06-22T04:00:06;28.10;;;19.77;;
1479;SDS011;732;51.698;4.886;2023-06-22T04:02:40;26.90;;;20.17;;
1479;SDS011;732;51.698;4.886;2023-06-22T04:05:09;28.53;;;19.60;;
1479;SDS011;732;51.698;4.886;2023-06-22T04:07:37;28.03;;;18.13;;
1479;SDS011;732;51.698;4.886;2023-06-22T04:10:06;25.97;;;18.50;;
1479;SDS011;732;51.698;4.886;2023-06-22T04:12:39;22.23;;;18.10;;
1479;SDS011;732;51.698;4.886;2023-06-22T04:15:08;26.20;;;19.37;;
1479;SDS011;732;51.698;4.886;2023-06-22T04:17:38;22.40;;;18.00;;
1479;SDS011;732;51.698;4.886;2023-06-22T04:20:08;28.00;;;19.97;;
1479;SDS011;732;51.698;4.886;2023-06-22T04:22:37;25.67;;;17.43;;
1479;SDS011;732;51.698;4.886;2023-06-22T04:25:05;25.03;;;18.27;;
1479;SDS011;732;51.698;4.886;2023-06-22T04:27:34;22.93;;;17.83;;
1479;SDS011;732;51.698;4.886;2023-06-22T04:30:08;26.20;;;19.23;;
1479;SDS011;732;51.698;4.886;2023-06-22T04:32:38;21.30;;;17.77;;
1479;SDS011;732;51.698;4.886;2023-06-22T04:35:07;26.40;;;17.57;;
1479;SDS011;732;51.698;4.886;2023-06-22T04:37:37;22.40;;;17.40;;
1479;SDS011;732;51.698;4.886;2023-06-22T04:40:06;23.30;;;17.70;;
1479;SDS011;732;51.698;4.886;2023-06-22T04:42:37;24.77;;;18.20;;
1479;SDS011;732;51.698;4.886;2023-06-22T04:45:08;24.80;;;18.20;;
1479;SDS011;732;51.698;4.886;2023-06-22T04:47:37;24.60;;;18.50;;
1479;SDS011;732;51.698;4.886;2023-06-22T04:50:06;27.53;;;19.40;;
1479;SDS011;732;51.698;4.886;2023-06-22T04:52:35;26.67;;;18.63;;
1479;SDS011;732;51.698;4.886;2023-06-22T04:55:03;26.23;;;18.33;;
1479;SDS011;732;51.698;4.886;2023-06-22T04:57:32;20.13;;;17.17;;
1479;SDS011;732;51.698;4.886;2023-06-22T05:00:01;27.20;;;17.70;;
1479;SDS011;732;51.698;4.886;2023-06-22T05:02:41;21.20;;;17.50;;
1479;SDS011;732;51.698;4.886;2023-06-22T05:05:10;24.03;;;17.97;;
1479;SDS011;732;51.698;4.886;2023-06-22T05:07:41;21.67;;;17.33;;
1479;SDS011;732;51.698;4.886;2023-06-22T05:10:11;19.43;;;16.67;;
1479;SDS011;732;51.698;4.886;2023-06-22T05:12:40;27.03;;;17.57;;
1479;SDS011;732;51.698;4.886;2023-06-22T05:15:09;21.53;;;17.70;;
1479;SDS011;732;51.698;4.886;2023-06-22T05:17:37;22.40;;;17.13;;
1479;SDS011;732;51.698;4.886;2023-06-22T05:20:11;24.10;;;17.10;;
1479;SDS011;732;51.698;4.886;2023-06-22T05:22:40;23.27;;;17.47;;
1479;SDS011;732;51.698;4.886;2023-06-22T05:25:10;24.10;;;17.80;;
1479;SDS011;732;51.698;4.886;2023-06-22T05:27:39;24.03;;;18.10;;
1479;SDS011;732;51.698;4.886;2023-06-22T05:30:08;19.90;;;16.07;;
1479;SDS011;732;51.698;4.886;2023-06-22T05:32:38;20.80;;;16.13;;
1479;SDS011;732;51.698;4.886;2023-06-22T05:35:06;20.53;;;16.97;;
1479;SDS011;732;51.698;4.886;2023-06-22T05:37:37;25.30;;;16.80;;
1479;SDS011;732;51.698;4.886;2023-06-22T05:40:06;20.83;;;16.40;;
1479;SDS011;732;51.698;4.886;2023-06-22T05:42:36;19.97;;;16.40;;
1479;SDS011;732;51.698;4.886;2023-06-22T05:45:05;20.37;;;14.23;;
1479;SDS011;732;51.698;4.886;2023-06-22T05:47:34;18.70;;;16.37;;
1479;SDS011;732;51.698;4.886;2023-06-22T05:50:03;19.80;;;15.80;;
1479;SDS011;732;51.698;4.886;2023-06-22T05:52:39;20.20;;;14.43;;
1479;SDS011;732;51.698;4.886;2023-06-22T05:55:08;20.63;;;15.07;;
1479;SDS011;732;51.698;4.886;2023-06-22T05:57:37;20.17;;;15.60;;
1479;SDS011;732;51.698;4.886;2023-06-22T06:00:06;25.37;;;14.50;;
1479;SDS011;732;51.698;4.886;2023-06-22T06:02:39;19.30;;;14.90;;
1479;SDS011;732;51.698;4.886;2023-06-22T06:05:10;18.57;;;15.03;;
1479;SDS011;732;51.698;4.886;2023-06-22T06:07:42;19.33;;;14.03;;
1479;SDS011;732;51.698;4.886;2023-06-22T06:10:11;25.10;;;15.10;;
1479;SDS011;732;51.698;4.886;2023-06-22T06:12:39;17.30;;;13.30;;
1479;SDS011;732;51.698;4.886;2023-06-22T06:15:08;17.67;;;13.27;;
1479;SDS011;732;51.698;4.886;2023-06-22T06:17:44;21.83;;;14.87;;
1479;SDS011;732;51.698;4.886;2023-06-22T06:20:14;17.97;;;13.50;;
1479;SDS011;732;51.698;4.886;2023-06-22T06:22:44;16.10;;;12.67;;
1479;SDS011;732;51.698;4.886;2023-06-22T06:25:13;17.73;;;14.43;;
1479;SDS011;732;51.698;4.886;2023-06-22T06:27:43;14.73;;;13.17;;
1479;SDS011;732;51.698;4.886;2023-06-22T06:30:12;16.10;;;13.70;;
1479;SDS011;732;51.698;4.886;2023-06-22T06:32:42;15.13;;;13.03;;
1479;SDS011;732;51.698;4.886;2023-06-22T06:35:12;16.87;;;12.47;;
1479;SDS011;732;51.698;4.886;2023-06-22T06:37:44;15.37;;;12.07;;
1479;SDS011;732;51.698;4.886;2023-06-22T06:40:15;15.00;;;12.27;;
1479;SDS011;732;51.698;4.886;2023-06-22T06:42:46;14.23;;;11.57;;
1479;SDS011;732;51.698;4.886;2023-06-22T06:45:16;15.63;;;11.70;;
1479;SDS011;732;51.698;4.886;2023-06-22T06:47:46;14.23;;;11.07;;
1479;SDS011;732;51.698;4.886;2023-06-22T06:50:14;15.50;;;12.00;;
1479;SDS011;732;51.698;4.886;2023-06-22T06:52:44;13.90;;;11.33;;
1479;SDS011;732;51.698;4.886;2023-06-22T06:55:13;13.90;;;10.47;;
1479;SDS011;732;51.698;4.886;2023-06-22T06:57:42;11.30;;;10.03;;
1479;SDS011;732;51.698;4.886;2023-06-22T07:00:12;12.53;;;9.90;;
1479;SDS011;732;51.698;4.886;2023-06-22T07:02:42;12.03;;;9.73;;
1479;SDS011;732;51.698;4.886;2023-06-22T07:05:14;13.17;;;10.30;;
1479;SDS011;732;51.698;4.886;2023-06-22T07:07:42;12.20;;;8.57;;
1479;SDS011;732;51.698;4.886;2023-06-22T07:10:12;12.63;;;9.40;;
1479;SDS011;732;51.698;4.886;2023-06-22T07:12:43;12.50;;;8.67;;
1479;SDS011;732;51.698;4.886;2023-06-22T07:15:11;9.77;;;8.77;;
1479;SDS011;732;51.698;4.886;2023-06-22T07:17:40;13.03;;;10.00;;
1479;SDS011;732;51.698;4.886;2023-06-22T07:20:09;14.50;;;10.30;;
1479;SDS011;732;51.698;4.886;2023-06-22T07:22:39;10.70;;;9.27;;
1479;SDS011;732;51.698;4.886;2023-06-22T07:25:10;12.97;;;10.43;;
1479;SDS011;732;51.698;4.886;2023-06-22T07:27:44;13.20;;;10.53;;
1479;SDS011;732;51.698;4.886;2023-06-22T07:30:14;12.00;;;10.57;;
1479;SDS011;732;51.698;4.886;2023-06-22T07:32:42;15.77;;;11.37;;
1479;SDS011;732;51.698;4.886;2023-06-22T07:35:11;11.37;;;10.27;;
1479;SDS011;732;51.698;4.886;2023-06-22T07:37:39;16.00;;;12.37;;
1479;SDS011;732;51.698;4.886;2023-06-22T07:40:08;14.83;;;12.50;;
1479;SDS011;732;51.698;4.886;2023-06-22T07:42:38;16.20;;;13.40;;
1479;SDS011;732;51.698;4.886;2023-06-22T07:45:07;14.23;;;12.43;;
1479;SDS011;732;51.698;4.886;2023-06-22T07:47:36;15.97;;;14.20;;
1479;SDS011;732;51.698;4.886;2023-06-22T07:50:05;15.50;;;12.77;;
1479;SDS011;732;51.698;4.886;2023-06-22T07:52:34;14.70;;;13.30;;
1479;SDS011;732;51.698;4.886;2023-06-22T07:55:03;16.13;;;14.43;;
1479;SDS011;732;51.698;4.886;2023-06-22T07:57:33;16.27;;;14.57;;
1479;SDS011;732;51.698;4.886;2023-06-22T08:00:03;14.40;;;12.93;;
1479;SDS011;732;51.698;4.886;2023-06-22T08:02:39;19.00;;;14.37;;
1479;SDS011;732;51.698;4.886;2023-06-22T08:05:08;14.83;;;13.00;;
1479;SDS011;732;51.698;4.886;2023-06-22T08:07:47;15.50;;;13.33;;
1479;SDS011;732;51.698;4.886;2023-06-22T08:10:16;14.93;;;13.33;;
1479;SDS011;732;51.698;4.886;2023-06-22T08:12:46;15.47;;;13.80;;
1479;SDS011;732;51.698;4.886;2023-06-22T08:15:15;15.90;;;14.20;;
1479;SDS011;732;51.698;4.886;2023-06-22T08:17:44;17.00;;;14.20;;
1479;SDS011;732;51.698;4.886;2023-06-22T08:20:12;19.70;;;15.37;;
1479;SDS011;732;51.698;4.886;2023-06-22T08:22:41;16.90;;;15.10;;
1479;SDS011;732;51.698;4.886;2023-06-22T08:25:10;18.60;;;16.53;;
1479;SDS011;732;51.698;4.886;2023-06-22T08:27:39;21.07;;;17.20;;
1479;SDS011;732;51.698;4.886;2023-06-22T08:30:13;17.27;;;14.80;;
1479;SDS011;732;51.698;4.886;2023-06-22T08:32:42;18.93;;;17.03;;
1479;SDS011;732;51.698;4.886;2023-06-22T08:35:10;20.00;;;18.00;;
1479;SDS011;732;51.698;4.886;2023-06-22T08:37:41;19.43;;;16.97;;
1479;SDS011;732;51.698;4.886;2023-06-22T08:40:10;16.23;;;14.53;;
1479;SDS011;732;51.698;4.886;2023-06-22T08:42:40;19.67;;;16.83;;
1479;SDS011;732;51.698;4.886;2023-06-22T08:45:09;19.63;;;15.90;;
1479;SDS011;732;51.698;4.886;2023-06-22T08:47:39;18.40;;;15.67;;
1479;SDS011;732;51.698;4.886;2023-06-22T08:50:09;17.97;;;15.63;;
1479;SDS011;732;51.698;4.886;2023-06-22T08:52:38;20.43;;;16.30;;
1479;SDS011;732;51.698;4.886;2023-06-22T08:55:09;19.83;;;15.40;;
1479;SDS011;732;51.698;4.886;2023-06-22T08:57:38;18.87;;;16.37;;
1479;SDS011;732;51.698;4.886;2023-06-22T09:00:07;18.83;;;16.97;;
1479;SDS011;732;51.698;4.886;2023-06-22T09:02:44;20.00;;;18.00;;
1479;SDS011;732;51.698;4.886;2023-06-22T09:05:14;20.17;;;16.80;;
1479;SDS011;732;51.698;4.886;2023-06-22T09:07:43;20.17;;;17.87;;
1479;SDS011;732;51.698;4.886;2023-06-22T09:10:12;20.27;;;18.17;;
1479;SDS011;732;51.698;4.886;2023-06-22T09:12:41;21.60;;;19.17;;
1479;SDS011;732;51.698;4.886;2023-06-22T09:15:09;22.50;;;17.77;;
1479;SDS011;732;51.698;4.886;2023-06-22T09:17:55;19.73;;;17.73;;
1479;SDS011;732;51.698;4.886;2023-06-22T09:20:24;21.50;;;19.20;;
1479;SDS011;732;51.698;4.886;2023-06-22T09:22:53;20.50;;;17.80;;
1479;SDS011;732;51.698;4.886;2023-06-22T09:25:21;21.63;;;19.37;;
1479;SDS011;732;51.698;4.886;2023-06-22T09:27:50;21.67;;;19.43;;
1479;SDS011;732;51.698;4.886;2023-06-22T09:30:18;20.97;;;17.40;;
1479;SDS011;732;51.698;4.886;2023-06-22T09:32:47;24.70;;;20.83;;
1479;SDS011;732;51.698;4.886;2023-06-22T09:35:17;29.70;;;21.60;;
1479;SDS011;732;51.698;4.886;2023-06-22T09:37:46;27.00;;;20.20;;
1479;SDS011;732;51.698;4.886;2023-06-22T09:40:14;21.87;;;19.57;;
1479;SDS011;732;51.698;4.886;2023-06-22T09:42:44;22.93;;;19.20;;
1479;SDS011;732;51.698;4.886;2023-06-22T09:45:15;25.57;;;22.87;;
1479;SDS011;732;51.698;4.886;2023-06-22T09:47:44;23.23;;;19.17;;
1479;SDS011;732;51.698;4.886;2023-06-22T09:50:12;27.00;;;23.50;;
1479;SDS011;732;51.698;4.886;2023-06-22T09:52:42;30.80;;;22.07;;
1479;SDS011;732;51.698;4.886;2023-06-22T09:55:14;26.40;;;22.10;;
1479;SDS011;732;51.698;4.886;2023-06-22T09:57:43;24.23;;;20.90;;
1479;SDS011;732;51.698;4.886;2023-06-22T10:00:12;26.60;;;20.30;;
1479;SDS011;732;51.698;4.886;2023-06-22T10:02:42;23.40;;;19.10;;
1479;SDS011;732;51.698;4.886;2023-06-22T10:05:11;21.50;;;19.10;;
1479;SDS011;732;51.698;4.886;2023-06-22T10:07:39;22.80;;;19.00;;
1479;SDS011;732;51.698;4.886;2023-06-22T10:10:11;19.27;;;17.00;;
1479;SDS011;732;51.698;4.886;2023-06-22T10:12:41;18.37;;;16.30;;
1479;SDS011;732;51.698;4.886;2023-06-22T10:15:15;19.10;;;16.07;;
1479;SDS011;732;51.698;4.886;2023-06-22T10:17:44;21.33;;;17.30;;
1479;SDS011;732;51.698;4.886;2023-06-22T10:20:12;22.77;;;16.97;;
1479;SDS011;732;51.698;4.886;2023-06-22T10:22:43;20.00;;;17.00;;
1479;SDS011;732;51.698;4.886;2023-06-22T10:25:13;20.10;;;17.27;;
1479;SDS011;732;51.698;4.886;2023-06-22T10:27:41;23.77;;;18.87;;
1479;SDS011;732;51.698;4.886;2023-06-22T10:30:11;19.43;;;17.20;;
1479;SDS011;732;51.698;4.886;2023-06-22T10:32:40;20.97;;;18.03;;
1479;SDS011;732;51.698;4.886;2023-06-22T10:35:10;20.50;;;18.30;;
1479;SDS011;732;51.698;4.886;2023-06-22T10:37:44;23.13;;;17.77;;
1479;SDS011;732;51.698;4.886;2023-06-22T10:40:14;23.53;;;18.83;;
1479;SDS011;732;51.698;4.886;2023-06-22T10:42:45;21.20;;;18.70;;
1479;SDS011;732;51.698;4.886;2023-06-22T10:45:13;22.23;;;18.90;;
1479;SDS011;732;51.698;4.886;2023-06-22T10:47:41;20.40;;;17.83;;
1479;SDS011;732;51.698;4.886;2023-06-22T10:50:10;21.23;;;18.90;;
1479;SDS011;732;51.698;4.886;2023-06-22T10:52:38;22.47;;;20.13;;
1479;SDS011;732;51.698;4.886;2023-06-22T10:55:09;23.80;;;21.20;;
1479;SDS011;732;51.698;4.886;2023-06-22T10:57:38;22.37;;;19.97;;
1479;SDS011;732;51.698;4.886;2023-06-22T11:00:11;24.10;;;21.57;;
1479;SDS011;732;51.698;4.886;2023-06-22T11:02:42;26.00;;;23.30;;
1479;SDS011;732;51.698;4.886;2023-06-22T11:05:11;26.60;;;23.03;;
1479;SDS011;732;51.698;4.886;2023-06-22T11:07:41;25.10;;;22.40;;
1479;SDS011;732;51.698;4.886;2023-06-22T11:10:11;25.03;;;22.13;;
1479;SDS011;732;51.698;4.886;2023-06-22T11:12:41;25.10;;;22.37;;
1479;SDS011;732;51.698;4.886;2023-06-22T11:15:11;30.40;;;24.10;;
1479;SDS011;732;51.698;4.886;2023-06-22T11:17:40;31.10;;;25.27;;
1479;SDS011;732;51.698;4.886;2023-06-22T11:20:09;43.40;;;30.40;;
1479;SDS011;732;51.698;4.886;2023-06-22T11:22:39;69.83;;;42.00;;
1479;SDS011;732;51.698;4.886;2023-06-22T11:25:08;66.00;;;43.50;;
1479;SDS011;732;51.698;4.886;2023-06-22T11:27:39;65.10;;;42.53;;
1479;SDS011;732;51.698;4.886;2023-06-22T11:30:08;69.53;;;46.70;;
1479;SDS011;732;51.698;4.886;2023-06-22T11:32:38;59.93;;;42.60;;
1479;SDS011;732;51.698;4.886;2023-06-22T11:35:07;52.70;;;41.30;;
1479;SDS011;732;51.698;4.886;2023-06-22T11:37:36;62.87;;;46.47;;
1479;SDS011;732;51.698;4.886;2023-06-22T11:40:05;60.83;;;48.17;;
1479;SDS011;732;51.698;4.886;2023-06-22T11:42:37;56.30;;;43.07;;
1479;SDS011;732;51.698;4.886;2023-06-22T11:45:06;56.47;;;41.93;;
1479;SDS011;732;51.698;4.886;2023-06-22T11:47:35;59.60;;;43.33;;
1479;SDS011;732;51.698;4.886;2023-06-22T11:50:04;55.50;;;44.07;;
1479;SDS011;732;51.698;4.886;2023-06-22T11:52:34;47.33;;;40.67;;
1479;SDS011;732;51.698;4.886;2023-06-22T11:55:03;45.20;;;39.67;;
1479;SDS011;732;51.698;4.886;2023-06-22T11:57:33;53.20;;;42.67;;
1479;SDS011;732;51.698;4.886;2023-06-22T12:00:05;50.17;;;41.23;;
1479;SDS011;732;51.698;4.886;2023-06-22T12:02:42;52.17;;;43.53;;
1479;SDS011;732;51.698;4.886;2023-06-22T12:05:11;55.50;;;44.63;;
1479;SDS011;732;51.698;4.886;2023-06-22T12:07:40;58.90;;;45.27;;
1479;SDS011;732;51.698;4.886;2023-06-22T12:10:08;53.17;;;44.90;;
1479;SDS011;732;51.698;4.886;2023-06-22T12:12:39;57.47;;;45.97;;
1479;SDS011;732;51.698;4.886;2023-06-22T12:15:08;59.50;;;47.07;;
1479;SDS011;732;51.698;4.886;2023-06-22T12:17:38;58.07;;;43.83;;
1479;SDS011;732;51.698;4.886;2023-06-22T12:20:08;58.83;;;47.43;;
1479;SDS011;732;51.698;4.886;2023-06-22T12:22:37;54.97;;;43.80;;
1479;SDS011;732;51.698;4.886;2023-06-22T12:25:06;52.83;;;43.60;;
1479;SDS011;732;51.698;4.886;2023-06-22T12:27:36;56.90;;;45.37;;
1479;SDS011;732;51.698;4.886;2023-06-22T12:30:06;52.37;;;43.33;;
1479;SDS011;732;51.698;4.886;2023-06-22T12:32:36;51.73;;;41.87;;
1479;SDS011;732;51.698;4.886;2023-06-22T12:35:05;52.57;;;43.40;;
1479;SDS011;732;51.698;4.886;2023-06-22T12:37:40;47.13;;;40.03;;
1479;SDS011;732;51.698;4.886;2023-06-22T12:40:10;45.00;;;40.00;;
1479;SDS011;732;51.698;4.886;2023-06-22T12:42:41;57.57;;;45.80;;
1479;SDS011;732;51.698;4.886;2023-06-22T12:45:09;52.07;;;42.40;;
1479;SDS011;732;51.698;4.886;2023-06-22T12:47:38;55.70;;;45.17;;
1479;SDS011;732;51.698;4.886;2023-06-22T12:50:07;57.10;;;47.40;;
1479;SDS011;732;51.698;4.886;2023-06-22T12:52:36;51.90;;;44.43;;
1479;SDS011;732;51.698;4.886;2023-06-22T12:55:07;57.60;;;48.10;;
1479;SDS011;732;51.698;4.886;2023-06-22T12:57:37;73.73;;;54.43;;
1479;SDS011;732;51.698;4.886;2023-06-22T13:00:07;58.30;;;45.53;;
1479;SDS011;732;51.698;4.886;2023-06-22T13:02:38;62.17;;;50.77;;
1479;SDS011;732;51.698;4.886;2023-06-22T13:05:06;79.27;;;57.13;;
1479;SDS011;732;51.698;4.886;2023-06-22T13:07:35;71.43;;;53.50;;
1479;SDS011;732;51.698;4.886;2023-06-22T13:10:04;80.10;;;55.90;;
1479;SDS011;732;51.698;4.886;2023-06-22T13:12:34;64.20;;;52.27;;
1479;SDS011;732;51.698;4.886;2023-06-22T13:15:03;75.43;;;55.23;;
1479;SDS011;732;51.698;4.886;2023-06-22T13:17:35;72.63;;;53.07;;
1479;SDS011;732;51.698;4.886;2023-06-22T13:20:04;70.77;;;51.20;;
1479;SDS011;732;51.698;4.886;2023-06-22T13:22:34;58.47;;;47.93;;
1479;SDS011;732;51.698;4.886;2023-06-22T13:25:07;55.60;;;45.53;;
1479;SDS011;732;51.698;4.886;2023-06-22T13:27:39;53.83;;;41.47;;
1479;SDS011;732;51.698;4.886;2023-06-22T13:30:10;41.90;;;36.50;;
1479;SDS011;732;51.698;4.886;2023-06-22T13:32:40;38.50;;;32.30;;
1479;SDS011;732;51.698;4.886;2023-06-22T13:35:10;48.60;;;38.70;;
1479;SDS011;732;51.698;4.886;2023-06-22T13:37:39;47.27;;;37.77;;
1479;SDS011;732;51.698;4.886;2023-06-22T13:40:07;47.60;;;38.23;;
1479;SDS011;732;51.698;4.886;2023-06-22T13:42:36;47.57;;;38.67;;
1479;SDS011;732;51.698;4.886;2023-06-22T13:45:06;51.97;;;42.30;;
1479;SDS011;732;51.698;4.886;2023-06-22T13:47:37;52.83;;;39.30;;
1479;SDS011;732;51.698;4.886;2023-06-22T13:50:05;48.30;;;38.33;;
1479;SDS011;732;51.698;4.886;2023-06-22T13:52:35;54.13;;;38.47;;
1479;SDS011;732;51.698;4.886;2023-06-22T13:55:04;44.30;;;35.83;;
1479;SDS011;732;51.698;4.886;2023-06-22T13:57:34;49.07;;;39.27;;
1479;SDS011;732;51.698;4.886;2023-06-22T14:00:04;44.60;;;38.40;;
1479;SDS011;732;51.698;4.886;2023-06-22T14:02:38;42.23;;;37.60;;
1479;SDS011;732;51.698;4.886;2023-06-22T14:05:07;44.80;;;36.93;;
1479;SDS011;732;51.698;4.886;2023-06-22T14:07:37;51.30;;;41.03;;
1479;SDS011;732;51.698;4.886;2023-06-22T14:10:06;49.80;;;42.67;;
1479;SDS011;732;51.698;4.886;2023-06-22T14:12:35;52.93;;;43.00;;
1479;SDS011;732;51.698;4.886;2023-06-22T14:15:04;49.20;;;40.57;;
1479;SDS011;732;51.698;4.886;2023-06-22T14:17:34;46.30;;;39.23;;
1479;SDS011;732;51.698;4.886;2023-06-22T14:20:05;49.23;;;39.33;;
1479;SDS011;732;51.698;4.886;2023-06-22T14:22:35;49.17;;;39.73;;
1479;SDS011;732;51.698;4.886;2023-06-22T14:25:04;56.03;;;45.90;;
1479;SDS011;732;51.698;4.886;2023-06-22T14:27:34;42.80;;;38.07;;
1479;SDS011;732;51.698;4.886;2023-06-22T14:30:02;56.63;;;39.70;;
1479;SDS011;732;51.698;4.886;2023-06-22T14:32:32;47.00;;;38.83;;
1479;SDS011;732;51.698;4.886;2023-06-22T14:35:01;54.10;;;43.37;;
1479;SDS011;732;51.698;4.886;2023-06-22T14:37:34;48.97;;;40.20;;
1479;SDS011;732;51.698;4.886;2023-06-22T14:40:03;51.57;;;44.70;;
1479;SDS011;732;51.698;4.886;2023-06-22T14:42:32;56.70;;;44.33;;
1479;SDS011;732;51.698;4.886;2023-06-22T14:45:01;57.00;;;47.30;;
1479;SDS011;732;51.698;4.886;2023-06-22T14:47:29;51.73;;;44.30;;
1479;SDS011;732;51.698;4.886;2023-06-22T14:49:58;72.73;;;49.60;;
1479;SDS011;732;51.698;4.886;2023-06-22T14:52:29;63.30;;;47.63;;
1479;SDS011;732;51.698;4.886;2023-06-22T14:54:57;56.70;;;45.90;;
1479;SDS011;732;51.698;4.886;2023-06-22T14:57:26;44.80;;;39.90;;
1479;SDS011;732;51.698;4.886;2023-06-22T14:59:55;56.20;;;42.80;;
1479;SDS011;732;51.698;4.886;2023-06-22T15:02:23;54.47;;;40.67;;
1479;SDS011;732;51.698;4.886;2023-06-22T15:04:52;43.90;;;37.00;;
1479;SDS011;732;51.698;4.886;2023-06-22T15:07:21;50.50;;;39.80;;
1479;SDS011;732;51.698;4.886;2023-06-22T15:09:51;52.87;;;43.07;;
1479;SDS011;732;51.698;4.886;2023-06-22T15:12:19;61.20;;;47.00;;
1479;SDS011;732;51.698;4.886;2023-06-22T15:14:48;67.10;;;48.90;;
1479;SDS011;732;51.698;4.886;2023-06-22T15:17:16;59.43;;;48.03;;
1479;SDS011;732;51.698;4.886;2023-06-22T15:19:44;56.53;;;46.37;;